Main page
METAR-TAF:

METAR-TAF

Airports :

Vavaʻu International Airport

Vavaʻu, Tonga

latitude: 18-35-07S, longitude: 173-57-42W, elevation: 72 m

Current weather observation

The report was made 34 minutes ago, at 14:00 UTC
Calm wind
Temperature 25°C
Humidity 94%
Pressure 1007 hPa
Visibility 10 km or more
Few clouds at a height of 900 ft
Scattered clouds at a height of 1800 ft

METAR: NFTV 221400Z 00000KT 9999 FEW009 SCT018 25/24 Q1007

Time: 03:34 (14:34 UTC)

Forecast

The report was made 3 hours and 8 minutes ago, at 11:26 UTC
Forecast valid from 22 at 12 UTC to 23 at 12 UTC
Wind 8 kt from the South/Southeast
Visibility 10 km or more
Scattered clouds at a height of 1700 ft
Scattered clouds at a height of 4000 ft
Probability 30% :
Temporary
from 22 at 15 UTC to 23 at 12 UTC
Visibility: 5000 m
Broken clouds at a height of 1400 ft
Few clouds at a height of 1800 ft, Cumulonimbus.
thunderstorm, rain

TAF: NFTV 221126Z 2212/2312 16008KT 9999 SCT017 SCT040 PROB30 TEMPO 2215/2312 5000 TSRA BKN014 FEW018CB

Weather observations and forecasts of more than 4000 airports (METAR and TAF reports).

The available stations are represented by yellow and red dots on the map.

Hover mouse over dot to see the name of the station.

Then click to see weather observations and forecasts.

To change the map : click on the green buttons with a black cross to zoom in, on the green button with a dash to zoom out, or on the green arrows for adjacent maps.


METAR-TAF: